Time;durP1;ratioP1;P1;durP2;ratioP2;P2;SDS_P1;SDS_P2;PMS_P1;PMS_P2;Temp;Humidity;BMP_temperature;BMP_pressure;BME280_temperature;BME280_humidity;BME280_pressure;Samples;Min_cycle;Max_cycle;Signal;HPM_P1;HPM_P2
2022/07/17 00:00:45;;;;;;;6.22;3.00;;;15.80;34.10;;;;;;5053671;28;20413;-77
2022/07/17 00:03:12;;;;;;;8.15;3.00;;;15.70;34.20;;;;;;5053262;28;20413;-77
2022/07/17 00:05:38;;;;;;;10.45;3.30;;;15.60;35.40;;;;;;5053982;28;20374;-77
2022/07/17 00:08:06;;;;;;;7.68;3.22;;;15.40;36.20;;;;;;5054278;28;20393;-77
2022/07/17 00:10:32;;;;;;;6.65;3.00;;;15.20;37.60;;;;;;5053264;28;20484;-77
2022/07/17 00:12:58;;;;;;;6.75;2.80;;;15.00;39.00;;;;;;5054194;28;20887;-77
2022/07/17 00:15:23;;;;;;;6.70;2.93;;;14.80;40.90;;;;;;5054826;28;20393;-77
2022/07/17 00:17:49;;;;;;;5.25;3.03;;;14.70;42.50;;;;;;5057271;28;20905;-76
2022/07/17 00:20:14;;;;;;;7.50;3.20;;;14.60;43.60;;;;;;5058761;28;20442;-77
2022/07/17 00:22:42;;;;;;;5.40;2.90;;;14.70;43.70;;;;;;5059024;28;20874;-77
2022/07/17 00:25:09;;;;;;;6.82;3.40;;;14.70;44.10;;;;;;5059863;28;20412;-77
2022/07/17 00:27:36;;;;;;;7.53;3.37;;;14.80;43.70;;;;;;5059586;28;20389;-77
2022/07/17 00:30:01;;;;;;;8.53;3.00;;;14.90;43.70;;;;;;5058888;28;20447;-77
2022/07/17 00:32:27;;;;;;;5.63;2.70;;;14.90;43.40;;;;;;5054089;28;20397;-76
2022/07/17 00:34:53;;;;;;;6.53;3.20;;;14.80;45.20;;;;;;5057032;28;20385;-77
2022/07/17 00:37:18;;;;;;;8.47;3.10;;;15.10;44.40;;;;;;5065250;28;20460;-77
2022/07/17 00:39:44;;;;;;;9.48;3.10;;;15.40;41.40;;;;;;5065247;28;20941;-76
2022/07/17 00:42:14;;;;;;;6.50;3.10;;;15.40;40.60;;;;;;5065826;28;20381;-77
2022/07/17 00:44:40;;;;;;;9.15;3.55;;;15.30;41.10;;;;;;5058917;28;20390;-77
2022/07/17 00:47:18;;;;;;;7.20;3.10;;;15.20;41.80;;;;;;5056395;28;20386;-77
2022/07/17 00:49:44;;;;;;;6.93;3.20;;;15.10;43.30;;;;;;5056380;28;20464;-76
2022/07/17 00:52:10;;;;;;;7.75;3.20;;;15.00;43.80;;;;;;5055741;28;20449;-76
2022/07/17 00:54:41;;;;;;;7.87;3.10;;;14.90;44.60;;;;;;5056001;28;20400;-77
2022/07/17 00:57:10;;;;;;;8.52;3.08;;;14.90;45.40;;;;;;5052060;28;20401;-76
2022/07/17 00:59:36;;;;;;;14.52;2.80;;;14.90;45.90;;;;;;5051850;28;20385;-76
2022/07/17 01:02:04;;;;;;;10.32;3.38;;;14.90;46.30;;;;;;5055782;28;20390;-76
2022/07/17 01:04:30;;;;;;;7.68;3.13;;;14.90;46.50;;;;;;5053540;28;20382;-76
2022/07/17 01:06:57;;;;;;;10.55;3.58;;;14.70;48.30;;;;;;5054459;28;20381;-76
2022/07/17 01:09:23;;;;;;;9.35;3.30;;;14.60;49.60;;;;;;5056597;28;20392;-76
2022/07/17 01:11:50;;;;;;;8.27;3.50;;;14.70;48.60;;;;;;5055718;28;20382;-77
2022/07/17 01:14:16;;;;;;;11.40;3.70;;;14.60;48.60;;;;;;5057084;28;20446;-76
2022/07/17 01:16:43;;;;;;;9.77;3.40;;;14.60;49.00;;;;;;5056002;28;20405;-76
2022/07/17 01:19:11;;;;;;;7.40;2.90;;;14.70;48.80;;;;;;5055358;28;20444;-77
2022/07/17 01:21:39;;;;;;;7.60;3.15;;;14.60;49.00;;;;;;5051765;28;20397;-76
2022/07/17 01:24:05;;;;;;;10.70;3.42;;;14.60;49.30;;;;;;5052150;28;20385;-77
2022/07/17 01:26:31;;;;;;;8.90;3.60;;;14.50;49.70;;;;;;5052848;28;20378;-77
2022/07/17 01:28:57;;;;;;;7.87;3.20;;;14.60;48.80;;;;;;5052269;28;20404;-76
2022/07/17 01:31:22;;;;;;;8.50;3.30;;;14.60;49.20;;;;;;5054749;28;20373;-76
2022/07/17 01:33:48;;;;;;;5.73;3.00;;;14.60;49.60;;;;;;5061366;28;20386;-76
2022/07/17 01:36:14;;;;;;;6.28;2.92;;;14.40;50.40;;;;;;5061979;28;20475;-75
2022/07/17 01:38:40;;;;;;;10.37;3.20;;;14.20;52.70;;;;;;5061517;28;20405;-77
2022/07/17 01:41:05;;;;;;;6.60;3.40;;;14.10;53.60;;;;;;5054309;28;20388;-77
2022/07/17 01:43:31;;;;;;;11.20;3.80;;;14.10;53.90;;;;;;5052708;28;20384;-76
2022/07/17 01:45:57;;;;;;;6.23;3.70;;;14.00;54.80;;;;;;5063231;22;20495;-76
2022/07/17 01:48:24;;;;;;;8.13;3.40;;;13.90;56.40;;;;;;5051153;28;20410;-74
2022/07/17 01:50:50;;;;;;;10.65;3.17;;;13.80;56.80;;;;;;5050949;28;20381;-73
2022/07/17 01:53:15;;;;;;;9.38;3.38;;;13.90;55.80;;;;;;5051259;28;20465;-75
2022/07/17 01:55:41;;;;;;;7.10;3.43;;;14.10;53.60;;;;;;5051254;28;20392;-74
2022/07/17 01:58:06;;;;;;;5.80;3.40;;;14.10;53.10;;;;;;5051389;28;20832;-74
2022/07/17 02:00:32;;;;;;;10.43;3.37;;;13.80;55.40;;;;;;5050735;28;20389;-74
2022/07/17 02:02:57;;;;;;;8.20;3.60;;;13.80;56.10;;;;;;5050760;28;20718;-74
2022/07/17 02:05:23;;;;;;;6.55;3.50;;;13.80;55.40;;;;;;5049927;28;20405;-75
2022/07/17 02:07:48;;;;;;;5.78;3.40;;;13.90;55.00;;;;;;5050899;28;20381;-76
2022/07/17 02:10:15;;;;;;;14.37;3.80;;;13.80;56.10;;;;;;5050884;28;20390;-75
2022/07/17 02:12:42;;;;;;;10.40;3.22;;;13.80;57.20;;;;;;5050454;28;20746;-76
2022/07/17 02:15:07;;;;;;;8.32;3.40;;;13.70;56.80;;;;;;5050929;28;20381;-75
2022/07/17 02:17:33;;;;;;;7.10;3.30;;;13.50;57.90;;;;;;5050643;28;20412;-74
2022/07/17 02:23:20;;;;;;;9.40;3.75;;;13.30;60.90;;;;;;5051513;28;20495;-75
2022/07/17 02:25:46;;;;;;;9.23;3.90;;;13.20;63.60;;;;;;5050957;28;20472;-75
2022/07/17 02:28:12;;;;;;;9.93;3.60;;;13.10;64.70;;;;;;5054471;28;20392;-75
2022/07/17 02:30:37;;;;;;;8.93;3.75;;;13.10;66.80;;;;;;5054697;28;20428;-74
2022/07/17 02:33:03;;;;;;;8.88;3.60;;;13.40;63.40;;;;;;5055107;28;20389;-75
2022/07/17 02:35:28;;;;;;;6.70;3.00;;;13.30;63.50;;;;;;5054958;28;20520;-75
2022/07/17 02:37:54;;;;;;;11.23;3.87;;;13.30;62.70;;;;;;5055056;28;20408;-75
2022/07/17 02:40:19;;;;;;;9.17;3.47;;;13.10;64.80;;;;;;5053755;28;20377;-75
2022/07/17 02:42:45;;;;;;;9.90;3.80;;;13.40;62.70;;;;;;5054043;28;20401;-75
2022/07/17 02:45:10;;;;;;;7.70;3.80;;;13.60;60.70;;;;;;5054151;28;20436;-75
2022/07/17 02:47:37;;;;;;;10.17;3.27;;;13.50;61.20;;;;;;5054461;28;20435;-75
2022/07/17 02:50:07;;;;;;;9.40;3.72;;;13.30;63.20;;;;;;5054421;28;20710;-75
2022/07/17 02:52:32;;;;;;;9.25;4.10;;;13.20;64.80;;;;;;5054473;28;20396;-75
2022/07/17 02:54:58;;;;;;;9.88;3.40;;;13.10;67.00;;;;;;5058178;28;20893;-75
2022/07/17 02:57:23;;;;;;;9.05;3.83;;;13.00;68.70;;;;;;5057914;28;20409;-74
2022/07/17 02:59:49;;;;;;;8.27;3.40;;;13.00;68.80;;;;;;5055433;28;20374;-76
2022/07/17 03:02:14;;;;;;;6.10;3.47;;;12.90;68.30;;;;;;5061435;28;20385;-75
2022/07/17 03:04:40;;;;;;;6.63;3.57;;;13.00;67.90;;;;;;5064559;28;20389;-76
2022/07/17 03:07:05;;;;;;;7.03;3.60;;;13.00;66.70;;;;;;5067464;28;20462;-75
2022/07/17 03:09:31;;;;;;;9.40;3.80;;;13.10;65.30;;;;;;5071111;28;20416;-76
2022/07/17 03:11:57;;;;;;;8.88;3.80;;;13.40;59.70;;;;;;5052875;28;20901;-76
2022/07/17 03:14:22;;;;;;;9.32;3.85;;;13.40;58.10;;;;;;5054545;28;20396;-75
2022/07/17 03:16:48;;;;;;;8.70;3.40;;;13.40;57.90;;;;;;5054096;28;20401;-75
2022/07/17 03:19:13;;;;;;;6.30;3.60;;;13.40;57.40;;;;;;5054163;28;20446;-75
2022/07/17 03:21:39;;;;;;;7.93;3.70;;;13.40;58.20;;;;;;5063379;28;20389;-74
2022/07/17 03:24:05;;;;;;;12.30;3.90;;;13.40;57.90;;;;;;5065297;28;20412;-74
2022/07/17 03:26:30;;;;;;;9.63;4.20;;;13.30;58.80;;;;;;5058432;28;20400;-74
2022/07/17 03:28:56;;;;;;;5.27;3.60;;;13.20;60.40;;;;;;5059499;28;20397;-74
2022/07/17 03:31:21;;;;;;;6.95;3.45;;;13.00;61.70;;;;;;5058538;28;20393;-74
2022/07/17 03:33:47;;;;;;;7.40;3.75;;;12.80;64.60;;;;;;5058968;28;20432;-74
2022/07/17 03:36:12;;;;;;;11.05;4.07;;;12.90;64.70;;;;;;5056524;28;20450;-75
2022/07/17 03:38:38;;;;;;;8.60;3.30;;;12.90;64.60;;;;;;5052897;28;20500;-75
2022/07/17 03:41:04;;;;;;;7.30;3.60;;;12.80;65.40;;;;;;5053098;28;20434;-75
2022/07/17 03:43:29;;;;;;;11.20;4.27;;;12.80;65.60;;;;;;5053447;28;20432;-75
2022/07/17 03:45:55;;;;;;;11.07;3.83;;;12.70;68.00;;;;;;5053049;28;20818;-75
2022/07/17 03:48:20;;;;;;;6.95;3.42;;;12.70;67.30;;;;;;5053287;28;20404;-75
2022/07/17 03:50:46;;;;;;;11.00;3.83;;;12.80;67.10;;;;;;5053149;28;20392;-75
2022/07/17 03:53:11;;;;;;;10.57;3.77;;;12.80;66.40;;;;;;5052963;28;20385;-75
2022/07/17 03:55:37;;;;;;;6.87;4.00;;;12.80;65.30;;;;;;5053546;28;20417;-75
2022/07/17 03:58:02;;;;;;;9.43;3.30;;;12.70;67.60;;;;;;5051564;28;20796;-74
2022/07/17 04:00:28;;;;;;;6.13;3.63;;;12.60;69.50;;;;;;5053092;28;20475;-75
2022/07/17 04:02:54;;;;;;;9.55;3.70;;;12.50;70.00;;;;;;5052718;28;20381;-75
2022/07/17 04:05:20;;;;;;;5.68;3.00;;;12.50;70.90;;;;;;5051748;28;20480;-75
2022/07/17 04:07:45;;;;;;;8.73;3.88;;;12.50;71.50;;;;;;5051726;28;20488;-75
2022/07/17 04:10:12;;;;;;;8.90;3.47;;;12.40;72.10;;;;;;5053383;28;20428;-75
2022/07/17 04:12:38;;;;;;;6.75;3.20;;;12.40;72.80;;;;;;5053225;28;20870;-75
2022/07/17 04:15:05;;;;;;;6.93;2.90;;;12.50;72.00;;;;;;5053056;28;20472;-75
2022/07/17 04:17:31;;;;;;;6.93;3.53;;;12.50;72.30;;;;;;5054035;28;20405;-75
2022/07/17 04:19:56;;;;;;;6.40;3.40;;;12.50;72.10;;;;;;5053725;28;20469;-74
2022/07/17 04:22:22;;;;;;;8.97;3.50;;;12.60;72.00;;;;;;5057389;28;20413;-74
2022/07/17 04:24:48;;;;;;;7.53;3.30;;;12.70;71.60;;;;;;5071482;28;20403;-75
2022/07/17 04:27:14;;;;;;;6.07;3.50;;;12.70;71.00;;;;;;5068729;28;20385;-74
2022/07/17 04:29:40;;;;;;;7.72;3.25;;;12.80;70.20;;;;;;5064331;28;20407;-75
2022/07/17 04:32:06;;;;;;;12.98;3.58;;;12.80;70.00;;;;;;5055055;28;20381;-75
2022/07/17 04:34:33;;;;;;;7.23;3.40;;;13.10;66.20;;;;;;5052564;28;20444;-74
2022/07/17 04:37:00;;;;;;;5.60;3.10;;;13.10;65.70;;;;;;5052356;28;20412;-76
2022/07/17 04:39:25;;;;;;;9.07;3.50;;;13.10;66.30;;;;;;5052338;28;20450;-75
2022/07/17 04:41:51;;;;;;;6.30;3.70;;;13.20;65.60;;;;;;5052176;28;20377;-75
2022/07/17 04:44:17;;;;;;;8.05;3.40;;;13.30;64.20;;;;;;5052349;28;20464;-75
2022/07/17 04:46:43;;;;;;;6.57;3.50;;;13.40;63.20;;;;;;5052127;28;20381;-75
2022/07/17 04:49:09;;;;;;;6.00;3.50;;;13.40;62.70;;;;;;5052027;28;20394;-75
2022/07/17 04:51:34;;;;;;;7.90;4.00;;;13.40;62.90;;;;;;5051092;28;20385;-75
2022/07/17 04:54:00;;;;;;;7.15;3.47;;;13.60;61.40;;;;;;5050732;28;20474;-74
2022/07/17 04:56:25;;;;;;;4.03;2.70;;;13.70;60.40;;;;;;5050513;28;20394;-74
2022/07/17 04:58:51;;;;;;;7.87;3.17;;;13.80;58.40;;;;;;5051975;28;20401;-75
2022/07/17 05:01:16;;;;;;;7.10;3.20;;;13.90;57.00;;;;;;5051755;28;20378;-75
2022/07/17 05:03:42;;;;;;;7.43;3.70;;;14.10;54.40;;;;;;5052005;28;20378;-75
2022/07/17 05:06:09;;;;;;;7.00;2.80;;;14.30;52.00;;;;;;5052317;28;20378;-75
2022/07/17 05:08:35;;;;;;;7.30;3.08;;;14.30;52.00;;;;;;5054277;28;20435;-75
2022/07/17 05:11:00;;;;;;;7.25;3.60;;;14.50;50.00;;;;;;5053402;28;20888;-75
2022/07/17 05:13:26;;;;;;;5.77;3.20;;;14.60;48.30;;;;;;5052083;28;20385;-75
2022/07/17 05:15:51;;;;;;;7.67;3.00;;;14.70;45.30;;;;;;5051516;28;20389;-75
2022/07/17 05:18:17;;;;;;;7.77;2.80;;;14.80;45.60;;;;;;5051420;28;20510;-75
2022/07/17 05:20:43;;;;;;;14.48;3.70;;;14.90;45.60;;;;;;5051583;28;20388;-75
2022/07/17 05:23:08;;;;;;;9.82;3.47;;;14.90;45.90;;;;;;5051439;28;20902;-74
2022/07/17 05:25:34;;;;;;;10.43;3.50;;;15.00;45.30;;;;;;5051861;28;20890;-74
2022/07/17 05:27:59;;;;;;;7.03;3.23;;;15.10;44.40;;;;;;5051881;28;20384;-74
2022/07/17 05:30:25;;;;;;;9.23;3.20;;;15.20;44.40;;;;;;5051742;28;20397;-74
2022/07/17 05:32:50;;;;;;;8.20;3.20;;;15.30;41.50;;;;;;5051037;28;20384;-74
2022/07/17 05:35:16;;;;;;;8.43;3.13;;;15.40;40.50;;;;;;5051945;28;20381;-76
2022/07/17 05:37:42;;;;;;;6.45;2.92;;;15.70;39.00;;;;;;5051448;28;20507;-75
2022/07/17 05:40:08;;;;;;;6.30;3.10;;;15.90;37.70;;;;;;5051365;28;20384;-76
2022/07/17 05:42:33;;;;;;;5.65;2.90;;;15.80;38.40;;;;;;5051442;28;20378;-76
2022/07/17 05:44:59;;;;;;;10.50;3.33;;;15.80;37.80;;;;;;5050858;28;20394;-75
2022/07/17 05:47:25;;;;;;;9.50;3.10;;;15.80;37.70;;;;;;5051316;28;20387;-76
2022/07/17 05:49:50;;;;;;;10.77;7.43;;;15.80;37.30;;;;;;5050975;28;20447;-76
2022/07/17 05:52:16;;;;;;;7.63;4.00;;;15.90;37.60;;;;;;5051070;28;20389;-76
2022/07/17 05:54:42;;;;;;;7.95;2.67;;;16.10;37.30;;;;;;5050765;28;20381;-75
2022/07/17 05:57:08;;;;;;;9.57;3.30;;;16.20;35.70;;;;;;5050666;28;20413;-75
2022/07/17 05:59:34;;;;;;;3.97;2.50;;;16.30;35.80;;;;;;5050770;28;20388;-75
2022/07/17 06:01:59;;;;;;;7.72;2.80;;;16.50;35.00;;;;;;5053933;28;20443;-76
2022/07/17 06:04:25;;;;;;;7.65;3.10;;;16.40;34.90;;;;;;5057802;28;20389;-75
2022/07/17 06:06:51;;;;;;;8.10;3.00;;;16.50;34.90;;;;;;5057741;28;21070;-74
2022/07/17 06:09:16;;;;;;;8.10;2.70;;;16.60;34.20;;;;;;5058407;28;20389;-74
2022/07/17 06:11:42;;;;;;;6.30;2.57;;;16.60;34.30;;;;;;5058581;28;20417;-74
2022/07/17 06:14:07;;;;;;;8.03;2.50;;;16.70;33.20;;;;;;5057669;28;20391;-74
2022/07/17 06:16:33;;;;;;;7.68;2.42;;;16.70;32.40;;;;;;5057577;28;20393;-75
2022/07/17 06:18:58;;;;;;;4.87;2.47;;;16.80;31.60;;;;;;5057349;28;20389;-75
2022/07/17 06:21:24;;;;;;;7.43;2.30;;;17.00;31.00;;;;;;5057521;28;20377;-75
2022/07/17 06:23:50;;;;;;;5.40;2.00;;;17.10;29.00;;;;;;5057535;28;20393;-74
2022/07/17 06:26:15;;;;;;;5.30;2.00;;;17.30;27.40;;;;;;5058090;28;20866;-75
2022/07/17 06:28:41;;;;;;;7.77;2.63;;;17.30;27.20;;;;;;5058108;28;20385;-74
2022/07/17 06:31:06;;;;;;;8.73;2.80;;;17.40;26.80;;;;;;5055955;28;20763;-74
2022/07/17 06:33:32;;;;;;;5.95;2.80;;;17.50;26.60;;;;;;5057677;28;20797;-74
2022/07/17 06:35:57;;;;;;;8.90;3.10;;;17.50;26.40;;;;;;5057120;28;20755;-74
2022/07/17 06:38:23;;;;;;;10.73;2.90;;;17.50;26.10;;;;;;5057140;28;20835;-74
2022/07/17 06:40:49;;;;;;;6.70;2.50;;;17.60;26.40;;;;;;5057169;28;20404;-73
2022/07/17 06:43:15;;;;;;;7.03;2.40;;;17.80;26.10;;;;;;5057007;28;20870;-73
2022/07/17 06:45:40;;;;;;;9.53;2.90;;;17.80;26.00;;;;;;5055380;28;20404;-74
2022/07/17 06:48:06;;;;;;;7.50;3.08;;;17.90;26.30;;;;;;5057568;28;20460;-74
2022/07/17 06:50:31;;;;;;;9.60;3.00;;;17.90;26.00;;;;;;5057529;28;20483;-74
2022/07/17 06:52:58;;;;;;;6.03;2.80;;;18.00;25.90;;;;;;5056737;28;20858;-75
2022/07/17 06:55:23;;;;;;;7.32;2.80;;;18.00;25.60;;;;;;5057156;28;20723;-74
2022/07/17 06:57:49;;;;;;;8.80;2.80;;;18.10;25.90;;;;;;5056892;28;20423;-75
2022/07/17 07:00:17;;;;;;;9.75;2.90;;;18.20;25.50;;;;;;5056840;28;20858;-74
2022/07/17 07:02:43;;;;;;;6.00;2.50;;;18.20;25.50;;;;;;5056709;28;20813;-73
2022/07/17 07:05:09;;;;;;;7.88;2.30;;;18.20;24.90;;;;;;5057104;28;20385;-73
2022/07/17 07:07:35;;;;;;;6.57;2.80;;;18.30;24.70;;;;;;5056839;28;20834;-72
2022/07/17 07:10:00;;;;;;;11.40;2.90;;;18.60;23.90;;;;;;5063188;28;20429;-73
2022/07/17 07:12:26;;;;;;;6.28;2.60;;;18.60;23.90;;;;;;5040905;28;20787;-74
2022/07/17 07:14:51;;;;;;;7.23;2.53;;;18.70;23.40;;;;;;5037421;28;20387;-74
2022/07/17 07:17:17;;;;;;;9.30;3.10;;;18.80;23.30;;;;;;5057025;28;20405;-73
2022/07/17 07:19:42;;;;;;;6.70;2.42;;;18.90;22.80;;;;;;5057201;28;20783;-73
2022/07/17 07:22:08;;;;;;;8.93;2.77;;;19.00;22.00;;;;;;5054259;28;20796;-74
2022/07/17 07:24:34;;;;;;;5.50;2.43;;;19.00;21.60;;;;;;5054127;28;20415;-74
2022/07/17 07:26:59;;;;;;;9.50;2.40;;;19.10;21.20;;;;;;5053747;28;20389;-73
2022/07/17 07:29:25;;;;;;;7.80;2.93;;;19.20;21.20;;;;;;5051923;28;20879;-73
2022/07/17 07:31:50;;;;;;;6.93;2.92;;;19.50;20.40;;;;;;5053382;28;20750;-73
2022/07/17 07:34:16;;;;;;;8.40;2.70;;;19.60;20.10;;;;;;5034766;28;20435;-71
2022/07/17 07:36:41;;;;;;;7.50;2.77;;;19.60;20.20;;;;;;5045372;28;20407;-74
2022/07/17 07:39:08;;;;;;;9.53;2.67;;;19.70;20.20;;;;;;5043282;28;20438;-72
2022/07/17 07:41:33;;;;;;;7.40;2.77;;;19.70;19.30;;;;;;5033153;28;20459;-73
2022/07/17 07:43:59;;;;;;;6.43;2.90;;;19.90;18.40;;;;;;5044292;28;20627;-75
2022/07/17 07:46:25;;;;;;;13.90;2.90;;;19.90;18.30;;;;;;5048928;28;20907;-75
2022/07/17 07:48:50;;;;;;;6.47;2.20;;;20.00;18.40;;;;;;5066835;28;20391;-73
2022/07/17 07:51:16;;;;;;;8.23;3.10;;;20.20;18.10;;;;;;5060336;28;20794;-77
2022/07/17 07:53:42;;;;;;;7.22;2.10;;;20.10;17.70;;;;;;5044442;28;20745;-75
2022/07/17 07:56:07;;;;;;;6.65;2.45;;;20.30;16.50;;;;;;5049753;28;20404;-75
2022/07/17 07:58:33;;;;;;;6.43;2.53;;;20.30;16.90;;;;;;5044186;28;20401;-75
2022/07/17 08:00:58;;;;;;;6.50;2.30;;;20.30;17.10;;;;;;5056192;28;20407;-75
2022/07/17 08:03:24;;;;;;;6.40;2.00;;;20.20;16.60;;;;;;5042491;28;20375;-74
2022/07/17 08:05:49;;;;;;;4.70;2.17;;;20.30;16.00;;;;;;5040250;28;20437;-75
2022/07/17 08:08:15;;;;;;;6.25;2.15;;;20.50;16.40;;;;;;5041257;28;20395;-75
2022/07/17 08:10:40;;;;;;;5.37;2.00;;;20.60;15.60;;;;;;5037386;28;20880;-75
2022/07/17 08:13:06;;;;;;;6.22;2.05;;;20.60;15.00;;;;;;5037855;28;20429;-76
2022/07/17 08:15:32;;;;;;;5.70;2.20;;;20.60;14.80;;;;;;5054174;28;20413;-74
2022/07/17 08:17:59;;;;;;;7.55;2.05;;;20.60;14.80;;;;;;5054273;28;20491;-74
2022/07/17 08:20:25;;;;;;;6.05;1.95;;;20.60;14.30;;;;;;5055686;28;20383;-73
2022/07/17 08:22:52;;;;;;;4.07;1.60;;;20.60;14.00;;;;;;5054948;28;20411;-75
2022/07/17 08:25:18;;;;;;;5.47;1.97;;;20.70;13.50;;;;;;5056017;28;20400;-76
2022/07/17 08:27:43;;;;;;;7.67;2.00;;;20.80;13.00;;;;;;5059992;28;20389;-76
2022/07/17 08:30:11;;;;;;;6.53;2.17;;;20.80;13.20;;;;;;5069431;28;20409;-74
2022/07/17 08:32:39;;;;;;;6.55;1.88;;;20.90;13.10;;;;;;5068128;28;20400;-75
2022/07/17 08:35:05;;;;;;;8.07;2.43;;;21.00;13.40;;;;;;5067981;28;20389;-74
2022/07/17 08:37:41;;;;;;;6.25;1.80;;;21.10;13.40;;;;;;5067392;28;20821;-75
2022/07/17 08:40:07;;;;;;;7.78;2.60;;;21.10;13.50;;;;;;5068414;28;20750;-77
2022/07/17 08:42:32;;;;;;;4.97;2.03;;;21.10;13.80;;;;;;5067526;28;20385;-74
2022/07/17 08:44:58;;;;;;;6.63;2.20;;;21.20;13.90;;;;;;5060766;28;20447;-74
2022/07/17 08:47:24;;;;;;;12.45;5.07;;;21.20;13.60;;;;;;5067223;28;20400;-75
2022/07/17 08:49:50;;;;;;;4.85;2.00;;;21.30;13.10;;;;;;5088574;28;20380;-75
2022/07/17 08:52:15;;;;;;;6.88;2.30;;;21.20;13.20;;;;;;5068960;28;20443;-74
2022/07/17 08:54:41;;;;;;;7.50;2.23;;;21.20;13.10;;;;;;5064313;28;20400;-74
2022/07/17 08:57:09;;;;;;;7.33;2.13;;;21.30;13.00;;;;;;5060063;28;20504;-74
2022/07/17 08:59:35;;;;;;;4.82;2.00;;;21.70;12.70;;;;;;5052114;28;20439;-75
2022/07/17 09:02:03;;;;;;;6.53;2.20;;;21.70;12.90;;;;;;5053679;28;20870;-75
2022/07/17 09:04:28;;;;;;;7.20;2.35;;;21.60;13.20;;;;;;5058783;28;20395;-76
2022/07/17 09:07:05;;;;;;;7.35;2.30;;;21.60;12.70;;;;;;5073578;28;20726;-73
2022/07/17 09:09:31;;;;;;;8.40;2.70;;;21.50;13.20;;;;;;5073274;28;20390;-74
2022/07/17 09:12:02;;;;;;;9.18;2.83;;;21.50;12.50;;;;;;5077652;28;20794;-74
2022/07/17 09:14:39;;;;;;;7.80;2.20;;;21.50;12.90;;;;;;5080649;28;20473;-73
2022/07/17 09:17:06;;;;;;;8.38;2.40;;;21.60;12.50;;;;;;5078906;28;20403;-75
2022/07/17 09:19:34;;;;;;;6.05;2.20;;;21.50;12.30;;;;;;5080166;28;20383;-74
2022/07/17 09:22:05;;;;;;;7.45;2.35;;;21.40;12.30;;;;;;5070547;28;20403;-73
2022/07/17 09:24:46;;;;;;;5.93;2.10;;;21.60;12.40;;;;;;5050537;28;20404;-76
2022/07/17 09:27:13;;;;;;;5.00;2.00;;;21.80;12.20;;;;;;5053357;28;20452;-75
2022/07/17 09:29:55;;;;;;;5.60;2.00;;;21.80;11.70;;;;;;5054337;28;20397;-73
2022/07/17 09:32:23;;;;;;;6.20;2.40;;;21.80;12.10;;;;;;5039205;28;20461;-75
2022/07/17 09:34:54;;;;;;;8.98;2.60;;;21.80;11.60;;;;;;5033782;28;20402;-75
2022/07/17 09:37:23;;;;;;;7.53;2.47;;;21.70;11.90;;;;;;5039330;28;20409;-76
2022/07/17 09:39:49;;;;;;;10.02;2.80;;;21.90;11.90;;;;;;5050221;28;20445;-76
2022/07/17 09:42:32;;;;;;;9.88;2.60;;;22.20;11.40;;;;;;5051039;28;20393;-76
2022/07/17 09:45:03;;;;;;;6.53;2.63;;;22.20;11.40;;;;;;5050156;28;20773;-74
2022/07/17 09:47:31;;;;;;;4.70;2.38;;;22.50;11.30;;;;;;5053571;28;20400;-75
2022/07/17 09:49:58;;;;;;;8.95;2.63;;;22.60;11.30;;;;;;5053852;28;20447;-76
2022/07/17 09:52:30;;;;;;;7.70;2.60;;;22.70;10.60;;;;;;5052074;28;20534;-76
2022/07/17 09:54:56;;;;;;;5.30;2.37;;;22.80;10.30;;;;;;5049546;28;20393;-74
2022/07/17 09:57:34;;;;;;;6.90;2.22;;;22.80;9.90;;;;;;5032167;28;20498;-75
2022/07/17 10:00:13;;;;;;;7.22;2.85;;;22.70;10.00;;;;;;5030825;28;20402;-76
2022/07/17 10:02:44;;;;;;;6.67;2.20;;;22.90;9.80;;;;;;5047427;28;20393;-75
2022/07/17 10:05:12;;;;;;;6.63;2.33;;;22.80;9.60;;;;;;5050635;28;20468;-75
2022/07/17 10:07:42;;;;;;;5.00;2.17;;;22.60;9.40;;;;;;5037403;28;20445;-72
2022/07/17 10:10:09;;;;;;;9.73;1.90;;;22.70;9.40;;;;;;5033935;28;20383;-75
2022/07/17 10:12:39;;;;;;;5.13;2.38;;;22.70;9.70;;;;;;5048169;28;20843;-75
2022/07/17 10:15:06;;;;;;;5.90;2.30;;;22.50;10.20;;;;;;5050364;28;20460;-75
2022/07/17 10:17:32;;;;;;;8.68;2.50;;;22.50;10.70;;;;;;5051145;28;20913;-76
2022/07/17 10:19:58;;;;;;;6.15;2.30;;;22.50;10.70;;;;;;5034640;28;20391;-74
2022/07/17 10:22:24;;;;;;;7.40;2.58;;;22.60;10.60;;;;;;5044320;28;21004;-76
2022/07/17 10:24:55;;;;;;;6.85;2.33;;;22.80;10.80;;;;;;5049849;28;20396;-74
2022/07/17 10:27:26;;;;;;;4.88;2.30;;;22.80;10.10;;;;;;5050352;28;20381;-75
2022/07/17 10:30:10;;;;;;;6.63;2.63;;;22.70;9.80;;;;;;5050878;28;20381;-75
2022/07/17 10:32:38;;;;;;;7.57;2.80;;;22.60;10.50;;;;;;5051016;28;20471;-75
2022/07/17 10:35:08;;;;;;;3.85;2.25;;;22.80;10.00;;;;;;5050722;28;20408;-74
2022/07/17 10:37:36;;;;;;;6.20;2.50;;;23.00;9.70;;;;;;5051113;28;20920;-75
2022/07/17 10:40:11;;;;;;;7.87;2.70;;;23.00;9.20;;;;;;5051243;28;20385;-75
2022/07/17 10:43:04;;;;;;;5.25;2.40;;;23.10;9.00;;;;;;5051086;28;20400;-76
2022/07/17 10:45:35;;;;;;;8.23;2.85;;;23.30;9.00;;;;;;5051168;28;20396;-75
2022/07/17 10:48:10;;;;;;;7.90;2.90;;;23.40;8.00;;;;;;5051357;28;20770;-75
2022/07/17 10:50:46;;;;;;;5.50;2.03;;;23.50;8.30;;;;;;5054141;28;20397;-76
2022/07/17 10:53:28;;;;;;;9.90;2.30;;;23.40;7.60;;;;;;5054747;28;20468;-76
2022/07/17 10:55:56;;;;;;;6.55;2.60;;;23.30;7.90;;;;;;5055189;28;20393;-74
2022/07/17 10:58:29;;;;;;;4.28;2.00;;;23.40;8.00;;;;;;5054806;28;20405;-74
2022/07/17 11:01:05;;;;;;;7.43;2.50;;;23.30;8.00;;;;;;5053997;28;20769;-76
2022/07/17 11:03:36;;;;;;;10.60;2.70;;;23.40;8.00;;;;;;5054072;28;20921;-76
2022/07/17 11:06:11;;;;;;;12.75;2.50;;;23.60;7.60;;;;;;5054575;28;20877;-75
2022/07/17 11:08:45;;;;;;;7.47;2.30;;;23.80;7.40;;;;;;5054548;28;20396;-75
2022/07/17 11:11:11;;;;;;;5.18;2.50;;;23.70;7.20;;;;;;5054139;28;20381;-75
2022/07/17 11:13:37;;;;;;;7.53;2.97;;;23.80;7.30;;;;;;5054316;28;20464;-75
2022/07/17 11:16:03;;;;;;;6.03;2.70;;;23.80;7.00;;;;;;5054037;28;20421;-76
2022/07/17 11:18:29;;;;;;;10.00;2.97;;;23.80;7.30;;;;;;5052577;28;20993;-75
2022/07/17 11:20:57;;;;;;;4.55;2.50;;;23.80;6.80;;;;;;5056624;28;20424;-75
2022/07/17 11:23:25;;;;;;;8.53;2.50;;;24.00;6.70;;;;;;5063638;28;20801;-74
2022/07/17 11:25:52;;;;;;;8.20;2.80;;;24.10;6.40;;;;;;5057193;28;20735;-73
2022/07/17 11:28:34;;;;;;;6.57;2.77;;;24.30;6.00;;;;;;5058860;28;20427;-73
2022/07/17 11:31:01;;;;;;;5.60;2.75;;;24.60;5.50;;;;;;5055319;28;20421;-76
2022/07/17 11:33:26;;;;;;;6.05;2.80;;;24.60;5.40;;;;;;5054039;28;20389;-75
2022/07/17 11:35:54;;;;;;;6.22;2.60;;;24.50;5.20;;;;;;5054405;28;20389;-75
2022/07/17 11:38:30;;;;;;;10.45;2.50;;;24.30;5.30;;;;;;5053540;28;20492;-75
2022/07/17 11:40:56;;;;;;;10.82;2.70;;;24.40;5.60;;;;;;5056497;28;20445;-75
2022/07/17 11:43:22;;;;;;;7.72;2.92;;;24.60;5.00;;;;;;5054341;28;20465;-75
2022/07/17 11:45:48;;;;;;;5.07;2.50;;;24.80;4.80;;;;;;5054673;28;20494;-74
2022/07/17 11:48:14;;;;;;;10.00;2.75;;;24.90;4.30;;;;;;5056415;28;20408;-75
2022/07/17 11:50:39;;;;;;;10.02;3.08;;;25.20;3.00;;;;;;5054400;28;20381;-75
2022/07/17 11:53:05;;;;;;;12.90;3.40;;;25.40;3.70;;;;;;5053577;28;20385;-75
2022/07/17 11:55:36;;;;;;;7.97;2.53;;;25.70;3.60;;;;;;5052662;28;20468;-75
2022/07/17 11:58:02;;;;;;;8.85;3.42;;;26.00;2.80;;;;;;5054468;28;20676;-75
2022/07/17 12:00:27;;;;;;;12.57;3.83;;;25.90;3.00;;;;;;5052303;28;20398;-74
2022/07/17 12:03:03;;;;;;;10.05;3.47;;;25.70;2.90;;;;;;5051950;28;20514;-75
2022/07/17 12:05:31;;;;;;;11.18;3.80;;;25.40;4.80;;;;;;5053106;28;20491;-74
2022/07/17 12:07:57;;;;;;;8.32;3.25;;;25.30;4.10;;;;;;5052891;28;20719;-75
2022/07/17 12:10:25;;;;;;;8.98;3.22;;;25.30;3.40;;;;;;5051683;28;20437;-75
2022/07/17 12:13:06;;;;;;;7.55;2.90;;;25.50;3.40;;;;;;5053551;28;20389;-76
2022/07/17 12:15:38;;;;;;;13.65;3.50;;;25.80;2.00;;;;;;5056952;28;20491;-74
2022/07/17 12:18:05;;;;;;;10.82;3.28;;;25.80;1.50;;;;;;5054887;28;20474;-75
2022/07/17 12:20:45;;;;;;;9.93;3.80;;;25.90;1.40;;;;;;5054337;28;20385;-76
2022/07/17 12:23:26;;;;;;;11.98;3.42;;;26.20;1.80;;;;;;5053899;28;20393;-76
2022/07/17 12:26:03;;;;;;;9.00;3.60;;;26.30;1.20;;;;;;5052679;28;20471;-75
2022/07/17 12:28:30;;;;;;;9.50;3.70;;;26.30;1.70;;;;;;5052927;28;20894;-74
2022/07/17 12:30:55;;;;;;;13.32;4.30;;;26.60;2.40;;;;;;5053776;28;20465;-76
2022/07/17 12:33:21;;;;;;;12.23;3.43;;;26.80;2.20;;;;;;5053114;28;20396;-75
2022/07/17 12:35:46;;;;;;;11.77;3.90;;;26.80;2.00;;;;;;5053087;28;20389;-75
2022/07/17 12:38:12;;;;;;;13.33;4.07;;;26.90;2.00;;;;;;5053104;28;20405;-75
2022/07/17 12:40:38;;;;;;;11.70;4.05;;;27.30;2.00;;;;;;5052445;28;20954;-76
2022/07/17 12:43:03;;;;;;;11.90;4.47;;;27.30;1.10;;;;;;5052488;28;20381;-75
2022/07/17 12:45:29;;;;;;;18.13;4.30;;;26.70;2.80;;;;;;5053083;28;20770;-75
2022/07/17 12:47:55;;;;;;;18.88;3.97;;;26.70;1.20;;;;;;5052444;28;20399;-75
2022/07/17 12:50:20;;;;;;;9.83;3.80;;;26.70;1.00;;;;;;5052519;28;20482;-74